createdAt,value
2023-02-15T00:00:26.293Z,2.42
2023-02-15T00:02:56.341Z,2.33
2023-02-15T00:05:24.724Z,2.41
2023-02-15T00:07:53.091Z,2.45
2023-02-15T00:10:21.389Z,2.56
2023-02-15T00:12:57.708Z,2.62
2023-02-15T00:15:26.968Z,2.66
2023-02-15T00:17:55.285Z,2.74
2023-02-15T00:20:23.711Z,2.78
2023-02-15T00:22:52.094Z,2.82
2023-02-15T00:25:20.477Z,2.83
2023-02-15T00:27:48.786Z,2.83
2023-02-15T00:30:18.731Z,2.80
2023-02-15T00:32:49.476Z,2.79
2023-02-15T00:35:18.222Z,2.78
2023-02-15T00:37:46.540Z,2.78
2023-02-15T00:40:15.079Z,2.77
2023-02-15T00:42:43.395Z,2.77
2023-02-15T00:45:11.750Z,2.74
2023-02-15T00:47:41.465Z,2.68
2023-02-15T00:50:10.307Z,2.62
2023-02-15T00:52:38.601Z,2.62
2023-02-15T00:55:07.842Z,2.69
2023-02-15T00:57:36.081Z,2.77
2023-02-15T01:00:05.180Z,2.82
2023-02-15T01:02:36.467Z,2.82
2023-02-15T01:05:07.188Z,2.80
2023-02-15T01:07:35.527Z,2.81
2023-02-15T01:10:04.064Z,2.80
2023-02-15T01:12:32.562Z,2.79
2023-02-15T01:15:01.188Z,2.79
2023-02-15T01:17:29.713Z,2.78
2023-02-15T01:19:58.027Z,2.82
2023-02-15T01:22:27.791Z,2.86
2023-02-15T01:24:56.145Z,2.88
2023-02-15T01:27:24.517Z,2.89
2023-02-15T01:29:52.920Z,2.88
2023-02-15T01:32:21.429Z,2.88
2023-02-15T01:34:49.723Z,2.86
2023-02-15T01:37:20.310Z,2.84
2023-02-15T01:39:50.158Z,2.85
2023-02-15T01:42:23.893Z,2.85
2023-02-15T01:44:54.336Z,2.84
2023-02-15T01:47:30.366Z,2.84
2023-02-15T01:50:05.828Z,2.85
2023-02-15T01:52:36.766Z,2.83
2023-02-15T01:55:08.075Z,2.84
2023-02-15T01:57:37.532Z,2.84
2023-02-15T02:00:08.291Z,2.83
2023-02-15T02:02:37.024Z,2.79
2023-02-15T02:05:08.838Z,2.79
2023-02-15T02:07:40.807Z,2.78
2023-02-15T02:10:12.836Z,2.75
2023-02-15T02:12:47.640Z,2.76
2023-02-15T02:15:17.078Z,2.77
2023-02-15T02:18:01.525Z,2.77
2023-02-15T02:20:58.900Z,2.78
2023-02-15T02:23:41.472Z,2.74
2023-02-15T02:26:38.734Z,2.73
2023-02-15T02:29:43.941Z,2.73
2023-02-15T02:32:44.873Z,2.75
2023-02-15T02:35:20.041Z,2.74
2023-02-15T02:37:56.930Z,2.72
2023-02-15T02:40:32.374Z,2.70
2023-02-15T02:43:05.105Z,2.65
2023-02-15T02:45:39.240Z,2.65
2023-02-15T02:48:12.530Z,2.64
2023-02-15T02:50:43.402Z,2.68
2023-02-15T02:53:12.017Z,2.71
2023-02-15T02:55:43.893Z,2.72
2023-02-15T02:58:19.151Z,2.69
2023-02-15T03:00:50.897Z,2.71
2023-02-15T03:03:26.428Z,2.71
2023-02-15T03:06:01.367Z,2.69
2023-02-15T03:08:38.179Z,2.66
2023-02-15T03:11:07.282Z,2.61
2023-02-15T03:13:36.459Z,2.60
2023-02-15T03:16:29.674Z,2.65
2023-02-15T03:19:03.576Z,2.70
2023-02-15T03:21:41.254Z,2.69
2023-02-15T03:24:15.400Z,2.69
2023-02-15T03:26:47.929Z,2.72
2023-02-15T03:29:18.021Z,2.73
2023-02-15T03:31:51.994Z,2.71
2023-02-15T03:34:20.742Z,2.68
2023-02-15T03:36:55.353Z,2.69
2023-02-15T03:39:31.155Z,2.65
2023-02-15T03:42:06.119Z,2.61
2023-02-15T03:44:41.581Z,2.56
2023-02-15T03:47:15.541Z,2.58
2023-02-15T03:49:49.283Z,2.59
2023-02-15T03:52:19.012Z,2.54
2023-02-15T03:54:47.998Z,2.52
2023-02-15T03:57:37.670Z,2.50
2023-02-15T04:00:30.991Z,2.46
2023-02-15T04:03:12.268Z,2.47
2023-02-15T04:05:41.224Z,2.47
2023-02-15T04:08:11.689Z,2.49
2023-02-15T04:10:56.041Z,2.43
2023-02-15T04:13:26.233Z,2.40
2023-02-15T04:16:04.886Z,2.39
2023-02-15T04:18:52.358Z,2.41
2023-02-15T04:21:39.811Z,2.40
2023-02-15T04:24:27.670Z,2.38
2023-02-15T04:26:56.781Z,2.27
2023-02-15T04:29:26.948Z,2.22
2023-02-15T04:31:56.946Z,2.13
2023-02-15T04:34:26.122Z,1.99
2023-02-15T04:36:54.601Z,1.98
2023-02-15T04:39:24.358Z,2.00
2023-02-15T04:41:52.754Z,2.05
2023-02-15T04:44:21.100Z,1.96
2023-02-15T04:46:49.527Z,1.76
2023-02-15T04:49:17.844Z,1.82
2023-02-15T04:51:46.206Z,1.90
2023-02-15T04:54:14.595Z,1.91
2023-02-15T04:56:44.363Z,1.85
2023-02-15T04:59:13.114Z,1.79
2023-02-15T05:01:41.584Z,1.83
2023-02-15T05:04:10.193Z,1.88
2023-02-15T05:06:38.682Z,1.95
2023-02-15T05:09:07.204Z,2.00
2023-02-15T05:11:35.895Z,2.03
2023-02-15T05:14:05.874Z,2.05
2023-02-15T05:16:41.968Z,2.04
2023-02-15T05:19:10.288Z,2.07
2023-02-15T05:21:38.608Z,2.10
2023-02-15T05:24:28.568Z,2.08
2023-02-15T05:27:14.344Z,2.10
2023-02-15T05:29:44.092Z,2.14
2023-02-15T05:32:15.138Z,2.13
2023-02-15T05:34:43.673Z,2.15
2023-02-15T05:37:12.020Z,2.16
2023-02-15T05:39:40.359Z,2.17
2023-02-15T05:42:08.699Z,2.19
2023-02-15T05:44:37.061Z,2.22
2023-02-15T05:47:08.180Z,2.22
2023-02-15T05:49:37.017Z,2.23
2023-02-15T05:52:05.909Z,2.26
2023-02-15T05:54:34.245Z,2.26
2023-02-15T05:57:02.781Z,2.20
2023-02-15T05:59:31.127Z,2.15
2023-02-15T06:01:59.472Z,2.13
2023-02-15T06:04:29.238Z,2.10
2023-02-15T06:06:57.545Z,2.05
2023-02-15T06:09:25.975Z,1.96
2023-02-15T06:11:54.418Z,1.94
2023-02-15T06:14:22.712Z,1.91
2023-02-15T06:16:50.999Z,1.87
2023-02-15T06:19:20.002Z,1.86
2023-02-15T06:21:49.679Z,1.88
2023-02-15T06:24:18.081Z,1.90
2023-02-15T06:26:46.507Z,1.93
2023-02-15T06:29:15.433Z,1.90
2023-02-15T06:31:43.840Z,1.92
2023-02-15T06:34:12.481Z,1.91
2023-02-15T06:36:40.818Z,1.86
2023-02-15T06:39:10.656Z,1.72
2023-02-15T06:41:39.045Z,1.65
2023-02-15T06:44:08.721Z,1.69
2023-02-15T06:46:38.428Z,1.77
2023-02-15T06:49:06.746Z,1.87
2023-02-15T06:51:35.662Z,1.92
2023-02-15T06:54:04.108Z,1.94
2023-02-15T06:56:33.886Z,1.99
2023-02-15T06:59:02.303Z,2.06
2023-02-15T07:01:30.682Z,2.09
2023-02-15T07:03:59.073Z,2.11
2023-02-15T07:06:27.490Z,2.11
2023-02-15T07:08:55.863Z,2.13
2023-02-15T07:11:41.643Z,2.17
2023-02-15T07:14:11.501Z,2.21
2023-02-15T07:16:39.912Z,2.24
2023-02-15T07:19:09.099Z,2.26
2023-02-15T07:21:38.084Z,2.29
2023-02-15T07:24:06.899Z,2.29
2023-02-15T07:26:35.243Z,2.25
2023-02-15T07:29:03.596Z,2.25
2023-02-15T07:31:33.438Z,2.33
2023-02-15T07:34:01.764Z,2.38
2023-02-15T07:36:30.117Z,2.39
2023-02-15T07:38:58.436Z,2.37
2023-02-15T07:41:26.758Z,2.38
2023-02-15T07:43:57.784Z,2.38
2023-02-15T07:46:26.182Z,2.36
2023-02-15T07:48:56.043Z,2.36
2023-02-15T07:51:24.451Z,2.33
2023-02-15T07:53:56.239Z,2.22
2023-02-15T07:56:24.784Z,2.29
2023-02-15T07:58:53.229Z,2.40
2023-02-15T08:01:25.434Z,2.45
2023-02-15T08:03:56.008Z,2.51
2023-02-15T08:06:26.515Z,2.59
2023-02-15T08:08:55.314Z,2.62
2023-02-15T08:11:30.187Z,2.66
2023-02-15T08:14:00.992Z,2.76
2023-02-15T08:16:33.381Z,2.85
2023-02-15T08:19:05.414Z,2.97
2023-02-15T08:21:35.628Z,3.11
2023-02-15T08:24:05.051Z,3.19
2023-02-15T08:26:34.137Z,3.30
2023-02-15T08:29:03.266Z,3.42
2023-02-15T08:31:31.891Z,3.50
2023-02-15T08:34:00.352Z,3.56
2023-02-15T08:36:33.579Z,3.59
2023-02-15T08:39:03.973Z,3.62
2023-02-15T08:41:33.692Z,3.66
2023-02-15T08:44:05.833Z,3.76
2023-02-15T08:46:36.404Z,3.90
2023-02-15T08:49:05.696Z,4.02
2023-02-15T08:51:37.549Z,4.06
2023-02-15T08:54:08.369Z,4.01
2023-02-15T08:56:39.124Z,3.93
2023-02-15T08:59:08.894Z,3.88
2023-02-15T09:01:37.531Z,3.85
2023-02-15T09:04:09.635Z,3.93
2023-02-15T09:06:40.402Z,4.05
2023-02-15T09:09:09.491Z,4.17
2023-02-15T09:11:40.231Z,4.28
2023-02-15T09:14:10.675Z,4.41
2023-02-15T09:16:40.053Z,4.51
2023-02-15T09:19:08.885Z,4.60
2023-02-15T09:21:40.141Z,4.61
2023-02-15T09:24:14.746Z,4.57
2023-02-15T09:26:44.875Z,4.51
2023-02-15T09:29:14.594Z,4.44
2023-02-15T09:31:45.588Z,4.49
2023-02-15T09:34:19.977Z,4.58
2023-02-15T09:36:50.439Z,4.65
2023-02-15T09:39:21.323Z,4.67
2023-02-15T09:42:11.865Z,4.78
2023-02-15T09:45:06.079Z,4.93
2023-02-15T09:48:07.112Z,5.01
2023-02-15T09:50:44.881Z,5.10
2023-02-15T09:53:35.364Z,5.27
2023-02-15T09:56:12.243Z,5.37
2023-02-15T09:58:49.482Z,5.39
2023-02-15T10:01:27.355Z,5.39
2023-02-15T10:04:07.480Z,5.35
2023-02-15T10:06:42.916Z,5.32
2023-02-15T10:09:29.811Z,5.23
2023-02-15T10:12:11.111Z,5.20
2023-02-15T10:14:54.698Z,5.24
2023-02-15T10:17:35.110Z,5.43
2023-02-15T10:20:19.094Z,5.49
2023-02-15T10:23:10.440Z,5.56
2023-02-15T10:25:47.395Z,5.60
2023-02-15T10:28:20.251Z,5.75
2023-02-15T10:30:51.455Z,5.89
2023-02-15T10:33:37.461Z,6.03
2023-02-15T10:36:19.188Z,6.17
2023-02-15T10:38:54.142Z,6.23
2023-02-15T10:41:35.336Z,6.33
2023-02-15T10:44:22.760Z,6.43
2023-02-15T10:47:04.749Z,6.52
2023-02-15T10:49:49.103Z,6.57
2023-02-15T10:52:28.697Z,6.62
2023-02-15T10:55:08.584Z,6.69
2023-02-15T10:57:50.758Z,6.72
2023-02-15T11:00:26.970Z,6.81
2023-02-15T11:03:17.578Z,6.96
2023-02-15T11:05:59.765Z,7.05
2023-02-15T11:08:31.576Z,7.24
2023-02-15T11:11:04.880Z,7.43
2023-02-15T11:13:40.371Z,7.51
2023-02-15T11:16:14.050Z,7.58
2023-02-15T11:18:47.505Z,7.72
2023-02-15T11:21:22.697Z,7.84
2023-02-15T11:23:51.999Z,7.93
2023-02-15T11:26:29.027Z,8.03
2023-02-15T11:29:03.732Z,8.11
2023-02-15T11:31:43.599Z,8.13
2023-02-15T11:34:19.874Z,8.19
2023-02-15T11:36:52.300Z,8.26
2023-02-15T11:39:24.084Z,8.37
2023-02-15T11:41:55.423Z,8.44
2023-02-15T11:44:30.024Z,8.53
2023-02-15T11:46:58.518Z,8.61
2023-02-15T11:49:31.715Z,8.69
2023-02-15T11:52:02.274Z,8.64
2023-02-15T11:54:33.476Z,8.79
2023-02-15T11:57:07.438Z,9.02
2023-02-15T11:59:42.353Z,9.15
2023-02-15T12:02:18.957Z,9.31
2023-02-15T12:04:54.636Z,9.46
2023-02-15T12:07:27.079Z,9.58
2023-02-15T12:10:05.318Z,9.63
2023-02-15T12:12:35.870Z,9.58
2023-02-15T12:15:07.224Z,9.61
2023-02-15T12:17:40.258Z,9.71
2023-02-15T12:20:26.717Z,9.84
2023-02-15T12:23:02.971Z,9.82
2023-02-15T12:25:37.871Z,9.82
2023-02-15T12:28:18.989Z,9.85
2023-02-15T12:30:48.828Z,9.95
2023-02-15T12:33:24.523Z,10.10
2023-02-15T12:36:00.623Z,10.24
2023-02-15T12:38:30.430Z,10.39
2023-02-15T12:41:00.785Z,10.46
2023-02-15T12:43:33.976Z,10.51
2023-02-15T12:46:23.885Z,10.54
2023-02-15T12:49:09.126Z,10.59
2023-02-15T12:51:49.656Z,10.70
2023-02-15T12:54:30.708Z,10.80
2023-02-15T12:56:59.550Z,10.92
2023-02-15T12:59:38.654Z,11.01
2023-02-15T13:02:17.554Z,11.07
2023-02-15T13:04:51.550Z,11.07
2023-02-15T13:07:20.290Z,11.18
2023-02-15T13:09:49.884Z,11.26
2023-02-15T13:12:23.121Z,11.31
2023-02-15T13:14:55.650Z,11.32
2023-02-15T13:17:30.497Z,11.40
2023-02-15T13:20:03.756Z,11.41
2023-02-15T13:22:43.146Z,11.46
2023-02-15T13:25:21.675Z,11.47
2023-02-15T13:27:54.748Z,11.54
2023-02-15T13:30:27.564Z,11.62
2023-02-15T13:33:02.437Z,11.69
2023-02-15T13:35:40.267Z,11.72
2023-02-15T13:38:21.233Z,11.75
2023-02-15T13:40:55.629Z,11.78
2023-02-15T13:43:37.476Z,11.86
2023-02-15T13:46:19.819Z,11.91
2023-02-15T13:48:58.834Z,11.95
2023-02-15T13:51:37.461Z,11.97
2023-02-15T13:54:25.318Z,11.97
2023-02-15T13:57:04.004Z,12.02
2023-02-15T13:59:57.250Z,12.05
2023-02-15T14:02:44.830Z,12.06
2023-02-15T14:05:39.823Z,12.09
2023-02-15T14:08:16.111Z,12.09
2023-02-15T14:10:58.734Z,12.09
2023-02-15T14:13:58.781Z,12.14
2023-02-15T14:16:36.571Z,12.21
2023-02-15T14:19:16.696Z,12.26
2023-02-15T14:21:50.708Z,12.28
2023-02-15T14:24:29.420Z,12.28
2023-02-15T14:27:06.569Z,12.29
2023-02-15T14:29:48.571Z,12.31
2023-02-15T14:32:24.414Z,12.36
2023-02-15T14:34:55.715Z,12.45
2023-02-15T14:37:37.226Z,12.57
2023-02-15T14:40:30.214Z,12.69
2023-02-15T14:43:03.157Z,12.84
2023-02-15T14:45:43.882Z,13.04
2023-02-15T14:48:18.227Z,13.17
2023-02-15T14:50:48.379Z,13.30
2023-02-15T14:53:24.458Z,13.39
2023-02-15T14:56:09.025Z,13.53
2023-02-15T14:58:37.840Z,13.62
2023-02-15T15:01:09.774Z,13.69
2023-02-15T15:03:45.318Z,13.78
2023-02-15T15:06:26.679Z,13.84
2023-02-15T15:09:01.505Z,13.71
2023-02-15T15:11:45.072Z,13.49
2023-02-15T15:14:41.359Z,13.25
2023-02-15T15:17:13.882Z,13.03
2023-02-15T15:20:00.619Z,12.86
2023-02-15T15:22:30.614Z,12.73
2023-02-15T15:25:00.953Z,12.61
2023-02-15T15:27:54.388Z,12.46
2023-02-15T15:30:51.985Z,12.29
2023-02-15T15:33:54.688Z,12.15
2023-02-15T15:37:11.893Z,12.00
2023-02-15T15:40:22.645Z,11.89
2023-02-15T15:43:12.985Z,11.78
2023-02-15T15:46:08.729Z,11.69
2023-02-15T15:48:39.036Z,11.61
2023-02-15T15:51:16.581Z,11.52
2023-02-15T15:53:49.476Z,11.45
2023-02-15T15:56:22.700Z,11.37
2023-02-15T15:58:56.225Z,11.30
2023-02-15T16:01:30.031Z,11.18
2023-02-15T16:04:01.677Z,11.09
2023-02-15T16:06:36.478Z,10.99
2023-02-15T16:09:17.747Z,10.89
2023-02-15T16:11:47.633Z,10.80
2023-02-15T16:14:22.585Z,10.72
2023-02-15T16:16:54.418Z,10.63
2023-02-15T16:19:28.188Z,10.51
2023-02-15T16:21:59.582Z,10.40
2023-02-15T16:24:44.542Z,10.25
2023-02-15T16:27:28.401Z,10.12
2023-02-15T16:29:58.234Z,9.99
2023-02-15T16:32:29.114Z,9.84
2023-02-15T16:34:59.101Z,9.74
2023-02-15T16:37:29.450Z,9.65
2023-02-15T16:39:58.212Z,9.56
2023-02-15T16:42:27.081Z,9.50
2023-02-15T16:45:03.021Z,9.41
2023-02-15T16:47:36.009Z,9.34
2023-02-15T16:50:06.269Z,9.27
2023-02-15T16:52:36.334Z,9.19
2023-02-15T16:55:07.679Z,9.10
2023-02-15T16:57:40.120Z,9.00
2023-02-15T17:00:21.541Z,8.90
2023-02-15T17:02:59.847Z,8.79
2023-02-15T17:05:33.726Z,8.75
2023-02-15T17:08:16.951Z,8.67
2023-02-15T17:11:02.528Z,8.62
2023-02-15T17:13:31.748Z,8.56
2023-02-15T17:16:30.511Z,8.47
2023-02-15T17:19:00.368Z,8.35
2023-02-15T17:21:34.888Z,8.29
2023-02-15T17:24:05.214Z,8.27
2023-02-15T17:26:36.804Z,8.26
2023-02-15T17:29:22.496Z,8.22
2023-02-15T17:31:54.277Z,8.17
2023-02-15T17:34:44.795Z,8.12
2023-02-15T17:37:14.765Z,8.03
2023-02-15T17:39:43.439Z,7.98
2023-02-15T17:42:11.821Z,7.92
2023-02-15T17:44:40.226Z,7.81
2023-02-15T17:47:16.947Z,7.65
2023-02-15T17:49:45.656Z,7.42
2023-02-15T17:52:15.013Z,7.29
2023-02-15T17:55:01.431Z,7.26
2023-02-15T17:57:31.107Z,7.24
2023-02-15T18:00:17.029Z,7.22
2023-02-15T18:03:06.045Z,7.23
2023-02-15T18:05:51.870Z,7.23
2023-02-15T18:08:45.164Z,7.20
2023-02-15T18:11:31.707Z,7.15
2023-02-15T18:14:01.486Z,7.08
2023-02-15T18:16:33.254Z,6.97
2023-02-15T18:19:04.819Z,6.83
2023-02-15T18:21:34.361Z,6.78
2023-02-15T18:24:02.816Z,6.73
2023-02-15T18:26:31.340Z,6.73
2023-02-15T18:29:00.114Z,6.70
2023-02-15T18:31:28.767Z,6.69
2023-02-15T18:33:59.637Z,6.68
2023-02-15T18:36:33.436Z,6.65
2023-02-15T18:39:07.758Z,6.63
2023-02-15T18:41:37.355Z,6.58
2023-02-15T18:44:12.730Z,6.54
2023-02-15T18:46:41.038Z,6.53
2023-02-15T18:49:09.443Z,6.52
2023-02-15T18:51:40.231Z,6.52
2023-02-15T18:54:18.186Z,6.45
2023-02-15T18:56:50.119Z,6.36
2023-02-15T18:59:19.019Z,6.29
2023-02-15T19:01:47.366Z,6.29
2023-02-15T19:04:15.728Z,6.30
2023-02-15T19:06:48.829Z,6.28
2023-02-15T19:09:20.842Z,6.19
2023-02-15T19:11:52.574Z,6.04
2023-02-15T19:14:29.560Z,5.93
2023-02-15T19:16:59.223Z,5.81
2023-02-15T19:19:28.613Z,5.70
2023-02-15T19:21:58.332Z,5.70
2023-02-15T19:24:38.098Z,5.73
2023-02-15T19:27:08.588Z,5.72
2023-02-15T19:29:38.609Z,5.69
2023-02-15T19:32:08.524Z,5.64
2023-02-15T19:34:38.140Z,5.56
2023-02-15T19:37:17.243Z,5.50
2023-02-15T19:39:45.932Z,5.48
2023-02-15T19:42:22.890Z,5.49
2023-02-15T19:44:54.609Z,5.46
2023-02-15T19:47:23.066Z,5.41
2023-02-15T19:49:51.746Z,5.39
2023-02-15T19:52:24.243Z,5.40
2023-02-15T19:54:55.632Z,5.33
2023-02-15T19:57:24.917Z,5.28
2023-02-15T19:59:53.274Z,5.24
2023-02-15T20:02:21.764Z,5.22
2023-02-15T20:04:50.259Z,5.18
2023-02-15T20:07:27.101Z,5.15
2023-02-15T20:09:55.565Z,5.13
2023-02-15T20:12:26.004Z,5.12
2023-02-15T20:14:54.520Z,5.09
2023-02-15T20:17:23.226Z,5.01
2023-02-15T20:19:51.640Z,5.02
2023-02-15T20:22:25.506Z,5.00
2023-02-15T20:24:56.181Z,4.99
2023-02-15T20:27:25.083Z,4.93
2023-02-15T20:29:56.742Z,4.85
2023-02-15T20:32:26.007Z,4.80
2023-02-15T20:34:54.593Z,4.78
2023-02-15T20:37:28.902Z,4.72
2023-02-15T20:39:57.325Z,4.62
2023-02-15T20:42:25.733Z,4.48
2023-02-15T20:44:54.269Z,4.44
2023-02-15T20:47:22.686Z,4.47
2023-02-15T20:49:51.318Z,4.53
2023-02-15T20:52:21.688Z,4.59
2023-02-15T20:54:51.794Z,4.61
2023-02-15T20:57:20.154Z,4.55
2023-02-15T20:59:48.539Z,4.50
2023-02-15T21:02:20.133Z,4.49
2023-02-15T21:04:49.030Z,4.45
2023-02-15T21:07:18.628Z,4.32
2023-02-15T21:09:47.373Z,4.20
2023-02-15T21:12:18.840Z,4.20
2023-02-15T21:14:47.534Z,4.19
2023-02-15T21:17:17.609Z,4.11
2023-02-15T21:19:46.241Z,3.95
2023-02-15T21:22:16.736Z,3.75
2023-02-15T21:24:50.403Z,3.61
2023-02-15T21:27:20.865Z,3.62
2023-02-15T21:29:49.275Z,3.61
2023-02-15T21:32:19.009Z,3.63
2023-02-15T21:34:47.434Z,3.59
2023-02-15T21:37:29.250Z,3.57
2023-02-15T21:39:57.714Z,3.51
2023-02-15T21:42:46.796Z,3.45
2023-02-15T21:45:34.068Z,3.37
2023-02-15T21:48:02.773Z,3.28
2023-02-15T21:50:49.203Z,3.08
2023-02-15T21:53:25.908Z,3.04
2023-02-15T21:55:58.245Z,3.08
2023-02-15T21:58:30.054Z,3.04
2023-02-15T22:01:00.350Z,3.01
2023-02-15T22:03:32.763Z,3.03
2023-02-15T22:06:01.681Z,3.01
2023-02-15T22:08:30.088Z,2.94
2023-02-15T22:10:59.149Z,2.82
2023-02-15T22:13:31.949Z,2.79
2023-02-15T22:16:00.712Z,2.79
2023-02-15T22:18:33.841Z,2.85
2023-02-15T22:21:04.431Z,2.89
2023-02-15T22:23:33.872Z,2.95
2023-02-15T22:26:06.090Z,2.96
2023-02-15T22:28:38.645Z,2.93
2023-02-15T22:31:12.866Z,2.93
2023-02-15T22:33:42.312Z,2.93
2023-02-15T22:36:23.737Z,2.95
2023-02-15T22:38:52.128Z,2.94
2023-02-15T22:41:21.018Z,2.91
2023-02-15T22:43:51.000Z,2.89
2023-02-15T22:46:22.364Z,2.92
2023-02-15T22:48:51.649Z,2.90
2023-02-15T22:51:22.268Z,2.85
2023-02-15T22:53:52.272Z,2.84
2023-02-15T22:56:26.653Z,2.83
2023-02-15T22:59:01.717Z,2.75
2023-02-15T23:01:32.706Z,2.59
2023-02-15T23:04:03.600Z,2.47
2023-02-15T23:06:32.860Z,2.40
2023-02-15T23:09:01.768Z,2.42
2023-02-15T23:11:30.265Z,2.48
2023-02-15T23:14:00.039Z,2.54
2023-02-15T23:16:28.458Z,2.53
2023-02-15T23:19:01.919Z,2.52
2023-02-15T23:21:32.671Z,2.42
2023-02-15T23:24:14.411Z,2.41
2023-02-15T23:26:42.787Z,2.41
2023-02-15T23:29:15.783Z,2.43
2023-02-15T23:31:46.045Z,2.37
2023-02-15T23:34:17.415Z,2.37
2023-02-15T23:36:46.085Z,2.41
2023-02-15T23:39:34.473Z,2.43
2023-02-15T23:42:06.118Z,2.39
2023-02-15T23:44:35.857Z,2.37
2023-02-15T23:47:04.751Z,2.37
2023-02-15T23:49:33.054Z,2.39
2023-02-15T23:52:02.629Z,2.39
2023-02-15T23:54:30.965Z,2.36
2023-02-15T23:57:01.950Z,2.34
2023-02-15T23:59:32.614Z,2.32
